createdAt,value
2023-05-16T04:34:39.639Z,75.98
2023-05-16T04:37:08.578Z,75.76
2023-05-16T04:39:36.748Z,75.71
2023-05-16T04:42:04.530Z,75.47
2023-05-16T04:44:31.821Z,75.03
2023-05-16T04:46:58.924Z,74.26
2023-05-16T04:49:26.282Z,73.68
2023-05-16T04:51:53.457Z,73.64
2023-05-16T04:54:20.375Z,72.91
2023-05-16T04:56:47.341Z,73.11
2023-05-16T04:59:14.327Z,73.21
2023-05-16T05:01:41.385Z,72.58
2023-05-16T05:04:08.424Z,72.19
2023-05-16T05:06:35.369Z,71.97
2023-05-16T05:09:02.273Z,71.52
2023-05-16T05:11:29.144Z,71.08
2023-05-16T05:13:56.016Z,69.11
2023-05-16T05:16:23.347Z,67.82
2023-05-16T05:18:50.697Z,66.50
2023-05-16T05:21:20.491Z,65.74
2023-05-16T05:23:51.451Z,64.82
2023-05-16T05:26:19.486Z,64.26
2023-05-16T05:29:03.976Z,62.97
2023-05-16T05:31:33.838Z,61.93
2023-05-16T05:38:02.999Z,60.80
2023-05-16T05:49:27.401Z,58.50
2023-05-16T05:53:01.082Z,58.54
2023-05-16T05:59:17.757Z,58.16
2023-05-16T06:02:56.852Z,57.01
2023-05-16T06:05:32.975Z,56.57
2023-05-16T06:08:02.066Z,56.96
2023-05-16T06:10:33.013Z,56.81
2023-05-16T06:13:03.674Z,57.33
2023-05-16T06:15:32.231Z,57.38
2023-05-16T06:18:05.856Z,57.75
2023-05-16T06:20:48.456Z,57.40
2023-05-16T06:30:05.106Z,56.89
2023-05-16T06:32:57.543Z,57.16
2023-05-16T06:35:43.236Z,57.12
2023-05-16T06:38:10.346Z,56.56
2023-05-16T06:40:37.718Z,56.17
2023-05-16T06:43:05.289Z,55.51
2023-05-16T06:45:32.906Z,55.48
2023-05-16T06:48:00.123Z,55.44
2023-05-16T06:50:27.475Z,55.57
2023-05-16T06:52:56.758Z,55.61
2023-05-16T06:55:24.405Z,55.10
2023-05-16T06:57:52.114Z,54.55
2023-05-16T07:00:19.847Z,54.11
2023-05-16T07:02:47.260Z,54.11
2023-05-16T07:05:14.381Z,54.19
2023-05-16T07:08:30.202Z,53.83
2023-05-16T07:11:21.962Z,53.24
2023-05-16T07:14:13.398Z,52.66
2023-05-16T07:17:13.194Z,51.90
2023-05-16T07:20:42.324Z,51.14
2023-05-16T07:23:57.316Z,51.01
2023-05-16T07:26:29.307Z,50.66
2023-05-16T07:28:58.133Z,50.64
2023-05-16T07:31:26.903Z,50.69
2023-05-16T07:33:54.069Z,50.29
2023-05-16T07:36:21.445Z,50.10
2023-05-16T07:38:48.460Z,49.39
2023-05-16T07:41:15.434Z,49.52
2023-05-16T07:43:42.562Z,49.24
2023-05-16T07:46:10.395Z,49.46
2023-05-16T07:48:41.195Z,49.23
2023-05-16T07:51:09.435Z,47.84
2023-05-16T07:53:36.703Z,47.23
2023-05-16T07:56:05.856Z,47.73
2023-05-16T07:58:36.472Z,48.12
2023-05-16T08:01:03.805Z,47.68
2023-05-16T08:03:37.959Z,47.04
2023-05-16T08:06:21.653Z,46.07
2023-05-16T08:09:33.781Z,44.69
2023-05-16T08:20:20.456Z,43.58
2023-05-16T08:24:08.437Z,43.04
2023-05-16T08:27:30.259Z,42.78
2023-05-16T08:30:35.097Z,42.88
2023-05-16T08:33:05.130Z,42.98
2023-05-16T08:35:32.741Z,42.85
2023-05-16T08:38:00.892Z,42.79
2023-05-16T08:40:28.656Z,43.06
2023-05-16T08:43:01.652Z,41.98
2023-05-16T08:46:32.032Z,40.69
2023-05-16T08:58:05.293Z,41.18
2023-05-16T09:01:33.993Z,41.11
2023-05-16T09:05:03.580Z,41.63
2023-05-16T09:08:43.988Z,42.20
2023-05-16T09:15:53.263Z,41.54
2023-05-16T09:18:45.516Z,42.19
2023-05-16T09:21:19.182Z,41.93
2023-05-16T09:23:46.647Z,42.08
2023-05-16T09:26:20.013Z,42.00
2023-05-16T09:29:19.724Z,41.60
2023-05-16T09:33:08.061Z,41.36
2023-05-16T09:39:58.433Z,40.17
2023-05-16T09:42:34.070Z,38.89
2023-05-16T09:45:12.205Z,38.08
2023-05-16T09:47:46.141Z,38.00
2023-05-16T09:50:17.405Z,38.36
2023-05-16T09:52:46.555Z,37.92
2023-05-16T09:55:17.487Z,38.13
2023-05-16T09:57:45.181Z,37.82
2023-05-16T10:00:13.770Z,37.92
2023-05-16T10:02:40.845Z,37.94
2023-05-16T10:05:08.343Z,37.85
2023-05-16T10:07:35.676Z,38.23
2023-05-16T10:10:08.613Z,38.40
2023-05-16T10:12:35.868Z,38.19
2023-05-16T10:15:03.352Z,38.03
2023-05-16T10:17:32.554Z,37.14
2023-05-16T10:20:05.930Z,37.24
2023-05-16T10:22:36.162Z,37.19
2023-05-16T10:25:10.619Z,36.79
2023-05-16T10:27:37.642Z,37.38
2023-05-16T10:30:05.937Z,37.30
2023-05-16T10:32:32.992Z,36.80
2023-05-16T10:35:03.340Z,36.69
2023-05-16T10:37:31.291Z,36.30
2023-05-16T10:40:00.081Z,36.24
2023-05-16T10:42:27.033Z,36.03
2023-05-16T10:45:05.026Z,36.36
2023-05-16T10:47:33.157Z,37.26
2023-05-16T10:50:00.191Z,36.87
2023-05-16T10:52:33.902Z,36.62
2023-05-16T10:55:02.926Z,36.60
2023-05-16T10:57:29.852Z,36.48
2023-05-16T11:00:01.820Z,36.33
2023-05-16T11:02:33.862Z,36.46
2023-05-16T11:05:02.088Z,36.81
2023-05-16T11:07:36.755Z,36.79
2023-05-16T11:10:11.668Z,36.73
2023-05-16T11:12:45.477Z,36.99
2023-05-16T11:15:24.892Z,37.28
2023-05-16T11:18:07.984Z,37.32
2023-05-16T11:20:36.430Z,37.21
2023-05-16T11:23:16.855Z,37.02
2023-05-16T11:25:45.806Z,36.88
2023-05-16T11:28:13.654Z,36.48
2023-05-16T11:30:44.837Z,36.02
2023-05-16T11:33:13.533Z,35.95
2023-05-16T11:35:40.655Z,35.99
2023-05-16T11:38:12.692Z,36.25
2023-05-16T11:40:43.004Z,36.52
2023-05-16T11:43:10.084Z,36.87
2023-05-16T11:45:37.498Z,36.61
2023-05-16T11:48:04.782Z,36.53
2023-05-16T11:50:34.204Z,36.60
2023-05-16T11:53:01.611Z,36.28
2023-05-16T11:55:41.005Z,36.21
2023-05-16T11:58:08.618Z,35.67
2023-05-16T12:00:35.877Z,34.97
2023-05-16T12:03:05.255Z,34.93
2023-05-16T12:05:34.317Z,34.50
2023-05-16T12:08:03.715Z,34.67
2023-05-16T12:10:31.583Z,33.46
2023-05-16T12:12:58.482Z,33.10
2023-05-16T12:15:25.774Z,32.89
2023-05-16T12:17:53.090Z,32.98
2023-05-16T12:20:20.265Z,31.54
2023-05-16T12:22:47.325Z,32.17
2023-05-16T12:25:32.279Z,31.39
2023-05-16T12:28:02.447Z,31.82
2023-05-16T12:30:31.930Z,32.17
2023-05-16T12:33:08.009Z,31.59
2023-05-16T12:35:37.559Z,31.81
2023-05-16T12:38:08.722Z,32.29
2023-05-16T12:40:42.473Z,32.69
2023-05-16T12:43:15.591Z,32.79
2023-05-16T12:45:43.496Z,32.74
2023-05-16T12:48:14.233Z,32.87
2023-05-16T12:50:41.949Z,33.10
2023-05-16T12:53:18.388Z,33.44
2023-05-16T12:55:45.454Z,33.63
2023-05-16T12:58:12.656Z,33.81
2023-05-16T13:00:39.984Z,34.46
2023-05-16T13:03:08.036Z,34.42
2023-05-16T13:05:36.557Z,34.20
2023-05-16T13:08:04.356Z,34.55
2023-05-16T13:10:31.430Z,34.53
2023-05-16T13:13:01.209Z,34.39
2023-05-16T13:15:28.643Z,34.31
2023-05-16T13:17:56.260Z,34.55
2023-05-16T13:20:23.658Z,34.77
